Time;durP1;ratioP1;P1;durP2;ratioP2;P2;SDS_P1;SDS_P2;PMS_P1;PMS_P2;Temp;Humidity;BMP_temperature;BMP_pressure;BME280_temperature;BME280_humidity;BME280_pressure;Samples;Min_cycle;Max_cycle;Signal;HPM_P1;HPM_P2
2023/09/26 00:02:23;;;;;;;;;;;15.80;99.90;;;;;;5014031;28;20005;-66
2023/09/26 00:04:48;;;;;;;;;;;15.90;99.90;;;;;;5013220;28;20004;-66
2023/09/26 00:07:14;;;;;;;;;;;15.90;99.90;;;;;;5018011;28;20683;-66
2023/09/26 00:09:40;;;;;;;;;;;15.90;99.90;;;;;;5015279;28;19916;-66
2023/09/26 00:12:06;;;;;;;;;;;15.90;99.90;;;;;;5012794;28;20384;-66
2023/09/26 00:14:33;;;;;;;;;;;15.90;99.90;;;;;;5016597;28;19913;-66
2023/09/26 00:16:59;;;;;;;;;;;15.90;99.90;;;;;;5017049;28;20170;-66
2023/09/26 00:19:24;;;;;;;;;;;15.90;99.90;;;;;;5016500;28;19940;-66
2023/09/26 00:21:50;;;;;;;;;;;15.90;99.90;;;;;;5011667;28;19913;-66
2023/09/26 00:24:15;;;;;;;;;;;15.90;99.90;;;;;;5019381;28;19931;-66
2023/09/26 00:26:41;;;;;;;;;;;15.80;99.90;;;;;;5025135;28;19913;-66
2023/09/26 00:29:07;;;;;;;;;;;15.80;99.90;;;;;;4996028;28;19931;-66
2023/09/26 00:31:32;;;;;;;;;;;15.80;99.90;;;;;;5019307;28;19956;-66
2023/09/26 00:33:58;;;;;;;;;;;15.80;99.90;;;;;;5015577;28;20000;-66
2023/09/26 00:36:24;;;;;;;;;;;15.70;99.90;;;;;;5002471;28;20400;-66
2023/09/26 00:38:50;;;;;;;;;;;15.70;99.90;;;;;;5015627;28;20557;-66
2023/09/26 00:41:16;;;;;;;;;;;15.70;99.90;;;;;;5016307;28;20415;-66
2023/09/26 00:43:42;;;;;;;;;;;15.70;99.90;;;;;;5016219;28;19929;-66
2023/09/26 00:46:09;;;;;;;;;;;15.70;99.90;;;;;;5011250;28;19994;-66
2023/09/26 00:48:35;;;;;;;;;;;15.70;99.90;;;;;;5015541;28;19920;-67
2023/09/26 00:51:01;;;;;;;;;;;15.70;99.90;;;;;;5011263;28;19913;-66
2023/09/26 00:53:29;;;;;;;;;;;15.80;99.90;;;;;;5008460;28;19909;-67
2023/09/26 00:55:56;;;;;;;;;;;15.70;99.90;;;;;;5009984;28;19945;-66
2023/09/26 00:58:22;;;;;;;;;;;15.70;99.90;;;;;;5017352;28;20008;-66
2023/09/26 01:00:51;;;;;;;;;;;15.70;99.90;;;;;;5017790;28;20450;-66
2023/09/26 01:03:17;;;;;;;;;;;15.80;99.90;;;;;;5020965;28;19909;-66
2023/09/26 01:05:42;;;;;;;;;;;15.70;99.90;;;;;;5017469;28;19917;-66
2023/09/26 01:08:08;;;;;;;;;;;15.70;99.90;;;;;;5014218;28;19917;-66
2023/09/26 01:10:35;;;;;;;;;;;15.70;99.90;;;;;;5015306;28;20404;-66
2023/09/26 01:13:01;;;;;;;;;;;15.80;99.90;;;;;;5012302;28;19925;-66
2023/09/26 01:15:37;;;;;;;;;;;15.80;99.90;;;;;;5015293;28;20489;-66
2023/09/26 01:18:23;;;;;;;;;;;15.80;99.90;;;;;;5009027;28;19967;-67
2023/09/26 01:20:49;;;;;;;;;;;15.70;99.90;;;;;;4994506;28;19909;-67
2023/09/26 01:23:15;;;;;;;;;;;15.70;99.90;;;;;;5015512;28;21278;-66
2023/09/26 01:25:41;;;;;;;;;;;15.70;99.90;;;;;;5016872;28;19920;-66
2023/09/26 01:28:08;;;;;;;;;;;15.70;99.90;;;;;;5012231;28;19913;-66
2023/09/26 01:30:37;;;;;;;;;;;15.70;99.90;;;;;;5007058;28;19969;-66
2023/09/26 01:33:03;;;;;;;;;;;15.60;99.90;;;;;;5012572;28;19959;-66
2023/09/26 01:35:29;;;;;;;;;;;15.60;99.90;;;;;;5009096;28;19909;-68
2023/09/26 01:37:54;;;;;;;;;;;15.60;99.90;;;;;;5016386;28;19920;-66
2023/09/26 01:40:20;;;;;;;;;;;15.60;99.90;;;;;;4996648;28;19916;-67
2023/09/26 01:42:45;;;;;;;;;;;15.60;99.90;;;;;;5013669;28;19925;-67
2023/09/26 01:45:11;;;;;;;;;;;15.60;99.90;;;;;;5010494;28;19916;-66
2023/09/26 01:47:42;;;;;;;;;;;15.50;99.90;;;;;;5016812;28;20457;-67
2023/09/26 01:50:08;;;;;;;;;;;15.50;99.90;;;;;;4999313;28;19923;-66
2023/09/26 01:52:35;;;;;;;;;;;15.40;99.90;;;;;;5015029;28;19913;-66
2023/09/26 01:55:07;;;;;;;;;;;15.30;99.90;;;;;;5001946;28;20444;-66
2023/09/26 01:57:33;;;;;;;;;;;15.20;99.90;;;;;;5010286;28;20228;-67
2023/09/26 02:00:00;;;;;;;;;;;15.20;99.90;;;;;;5015013;28;19912;-66
2023/09/26 02:02:25;;;;;;;;;;;15.20;99.90;;;;;;4997199;28;19913;-67
2023/09/26 02:04:51;;;;;;;;;;;15.20;99.90;;;;;;5015120;28;19924;-67
2023/09/26 02:07:16;;;;;;;;;;;15.20;99.90;;;;;;4999098;28;20356;-67
2023/09/26 02:09:42;;;;;;;;;;;15.20;99.90;;;;;;5009673;28;19936;-66
2023/09/26 02:12:07;;;;;;;;;;;15.20;99.90;;;;;;5013974;28;20074;-66
2023/09/26 02:14:33;;;;;;;;;;;15.30;99.90;;;;;;4991921;28;20002;-67
2023/09/26 02:16:59;;;;;;;;;;;15.30;99.90;;;;;;5015068;28;19958;-66
2023/09/26 02:19:24;;;;;;;;;;;15.30;99.90;;;;;;5000215;28;19920;-66
2023/09/26 02:21:50;;;;;;;;;;;15.30;99.90;;;;;;5011895;28;19920;-66
2023/09/26 02:24:15;;;;;;;;;;;15.30;99.90;;;;;;5015216;28;19909;-66
2023/09/26 02:26:41;;;;;;;;;;;15.20;99.90;;;;;;5015401;28;20365;-66
2023/09/26 02:29:07;;;;;;;;;;;15.20;99.90;;;;;;5006575;28;20869;-66
2023/09/26 02:31:32;;;;;;;;;;;15.20;99.90;;;;;;5010329;28;19924;-66
2023/09/26 02:33:59;;;;;;;;;;;15.20;99.90;;;;;;5002681;28;20003;-66
2023/09/26 02:36:24;;;;;;;;;;;15.20;99.90;;;;;;5002201;28;20601;-66
2023/09/26 02:38:50;;;;;;;;;;;15.20;99.90;;;;;;4998953;28;19909;-66
2023/09/26 02:41:15;;;;;;;;;;;15.20;99.90;;;;;;5009779;28;19955;-66
2023/09/26 02:43:41;;;;;;;;;;;15.20;99.90;;;;;;5000629;28;19955;-66
2023/09/26 02:46:07;;;;;;;;;;;15.20;99.90;;;;;;5011556;28;19917;-66
2023/09/26 02:48:33;;;;;;;;;;;15.20;99.90;;;;;;5014325;28;20339;-66
2023/09/26 02:51:05;;;;;;;;;;;15.20;99.90;;;;;;5015759;28;19917;-66
2023/09/26 02:53:31;;;;;;;;;;;15.20;99.90;;;;;;5015215;28;19959;-66
2023/09/26 02:55:56;;;;;;;;;;;15.20;99.90;;;;;;4994889;28;20315;-66
2023/09/26 02:58:22;;;;;;;;;;;15.10;99.90;;;;;;5013016;28;19921;-66
2023/09/26 03:00:49;;;;;;;;;;;15.10;99.90;;;;;;5015846;28;19909;-66
2023/09/26 03:03:14;;;;;;;;;;;15.10;99.90;;;;;;5017194;28;19917;-66
2023/09/26 03:05:47;;;;;;;;;;;15.10;99.90;;;;;;5004021;28;19913;-66
2023/09/26 03:08:13;;;;;;;;;;;15.10;99.90;;;;;;5006696;28;19913;-66
2023/09/26 03:10:39;;;;;;;;;;;15.00;99.90;;;;;;4999881;28;19928;-66
2023/09/26 03:13:05;;;;;;;;;;;15.00;99.90;;;;;;5013665;28;19919;-66
2023/09/26 03:15:30;;;;;;;;;;;15.00;99.90;;;;;;5012486;28;19909;-66
2023/09/26 03:17:56;;;;;;;;;;;15.00;99.90;;;;;;5014505;28;19909;-66
2023/09/26 03:20:21;;;;;;;;;;;15.00;99.90;;;;;;5012911;28;19917;-66
2023/09/26 03:22:49;;;;;;;;;;;15.00;99.90;;;;;;5003461;28;19917;-66
2023/09/26 03:25:14;;;;;;;;;;;14.90;99.90;;;;;;5016372;28;20004;-66
2023/09/26 03:27:40;;;;;;;;;;;14.90;99.90;;;;;;5015196;28;20004;-66
2023/09/26 03:30:07;;;;;;;;;;;14.90;99.90;;;;;;5010268;28;20272;-66
2023/09/26 03:32:33;;;;;;;;;;;14.90;99.90;;;;;;5014177;28;20434;-66
2023/09/26 03:34:59;;;;;;;;;;;14.90;99.90;;;;;;5013704;28;20066;-66
2023/09/26 03:37:24;;;;;;;;;;;14.90;99.90;;;;;;4998351;28;19909;-66
2023/09/26 03:39:50;;;;;;;;;;;14.90;99.90;;;;;;5013482;28;20019;-66
2023/09/26 03:42:15;;;;;;;;;;;14.80;99.90;;;;;;5015692;28;20261;-66
2023/09/26 03:44:44;;;;;;;;;;;14.80;99.90;;;;;;4999695;28;19925;-66
2023/09/26 03:47:09;;;;;;;;;;;14.80;99.90;;;;;;5017995;28;19988;-66
2023/09/26 03:49:35;;;;;;;;;;;14.80;99.90;;;;;;5012305;28;20054;-66
2023/09/26 03:52:01;;;;;;;;;;;14.80;99.90;;;;;;5019464;28;20381;-66
2023/09/26 03:54:27;;;;;;;;;;;14.80;99.90;;;;;;5020187;28;19935;-66
2023/09/26 03:56:53;;;;;;;;;;;14.80;99.90;;;;;;5020229;28;19909;-66
2023/09/26 03:59:19;;;;;;;;;;;14.80;99.90;;;;;;5001998;28;19909;-66
2023/09/26 04:01:47;;;;;;;;;;;14.70;99.90;;;;;;5021185;28;19965;-69
2023/09/26 04:04:13;;;;;;;;;;;14.70;99.90;;;;;;5015911;28;20355;-66
2023/09/26 04:06:41;;;;;;;;;;;14.70;99.90;;;;;;5020863;28;20017;-66
2023/09/26 04:09:07;;;;;;;;;;;14.70;99.90;;;;;;5007607;28;19921;-66
2023/09/26 04:11:32;;;;;;;;;;;14.80;99.90;;;;;;5006716;28;19909;-66
2023/09/26 04:13:58;;;;;;;;;;;14.70;99.90;;;;;;5017735;28;19909;-66
2023/09/26 04:16:23;;;;;;;;;;;14.70;99.90;;;;;;5018534;28;20383;-66
2023/09/26 04:18:49;;;;;;;;;;;14.70;99.90;;;;;;5016723;28;19916;-66
2023/09/26 04:21:14;;;;;;;;;;;14.70;99.90;;;;;;5014045;28;19993;-68
2023/09/26 04:23:40;;;;;;;;;;;14.60;99.90;;;;;;5016500;28;20564;-68
2023/09/26 04:26:10;;;;;;;;;;;14.60;99.90;;;;;;4996010;28;19916;-67
2023/09/26 04:28:36;;;;;;;;;;;14.60;99.90;;;;;;4997284;28;19917;-68
2023/09/26 04:31:01;;;;;;;;;;;14.60;99.90;;;;;;5013456;28;19917;-68
2023/09/26 04:33:27;;;;;;;;;;;14.60;99.90;;;;;;5010287;28;19910;-68
2023/09/26 04:35:56;;;;;;;;;;;14.60;99.90;;;;;;5017635;28;19913;-65
2023/09/26 04:38:22;;;;;;;;;;;14.60;99.90;;;;;;5021484;28;19913;-66
2023/09/26 04:40:48;;;;;;;;;;;14.60;99.90;;;;;;5016534;28;19932;-66
2023/09/26 04:43:14;;;;;;;;;;;14.60;99.90;;;;;;5012949;28;20036;-66
2023/09/26 04:45:39;;;;;;;;;;;14.60;99.90;;;;;;5016951;28;20309;-66
2023/09/26 04:48:05;;;;;;;;;;;14.60;99.90;;;;;;5012135;28;19913;-66
2023/09/26 04:50:31;;;;;;;;;;;14.70;99.90;;;;;;5016921;28;20425;-66
2023/09/26 04:52:57;;;;;;;;;;;14.70;99.90;;;;;;4996739;28;20242;-66
2023/09/26 04:55:23;;;;;;;;;;;14.70;99.90;;;;;;5018332;28;19913;-66
2023/09/26 04:57:49;;;;;;;;;;;14.70;99.90;;;;;;4996313;28;20529;-66
2023/09/26 05:00:17;;;;;;;;;;;14.70;99.90;;;;;;5003075;28;19924;-66
2023/09/26 05:02:44;;;;;;;;;;;14.80;99.90;;;;;;5002358;28;19913;-64
2023/09/26 05:05:10;;;;;;;;;;;14.90;99.90;;;;;;4999707;28;19917;-64
2023/09/26 05:07:36;;;;;;;;;;;15.00;99.90;;;;;;5018845;28;19913;-66
2023/09/26 05:10:03;;;;;;;;;;;15.20;99.90;;;;;;5003540;28;19979;-63
2023/09/26 05:12:28;;;;;;;;;;;15.40;99.90;;;;;;4993142;28;19913;-63
2023/09/26 05:14:55;;;;;;;;;;;15.60;99.90;;;;;;5010929;28;19920;-65
2023/09/26 05:17:24;;;;;;;;;;;15.80;99.90;;;;;;5019738;28;19978;-64
2023/09/26 05:19:50;;;;;;;;;;;16.00;99.90;;;;;;5012758;28;19920;-64
2023/09/26 05:22:17;;;;;;;;;;;16.30;99.90;;;;;;5016030;28;20794;-64
2023/09/26 05:24:42;;;;;;;;;;;16.60;99.90;;;;;;5017292;28;20005;-61
2023/09/26 05:27:08;;;;;;;;;;;16.90;99.90;;;;;;5017230;28;19992;-60
2023/09/26 05:29:35;;;;;;;;;;;17.30;99.90;;;;;;5008346;28;19913;-60
2023/09/26 05:32:01;;;;;;;;;;;17.60;99.90;;;;;;5015944;28;20371;-61
2023/09/26 05:34:27;;;;;;;;;;;17.90;99.90;;;;;;5016937;28;19996;-61
2023/09/26 05:36:52;;;;;;;;;;;18.40;99.90;;;;;;5018624;28;19920;-60
2023/09/26 05:39:18;;;;;;;;;;;19.00;99.90;;;;;;5018278;28;19936;-61
2023/09/26 05:41:43;;;;;;;;;;;19.20;99.90;;;;;;5010803;28;19960;-60
2023/09/26 05:44:11;;;;;;;;;;;19.20;99.90;;;;;;5013940;28;19917;-60
2023/09/26 05:46:36;;;;;;;;;;;19.30;99.90;;;;;;5017549;28;20070;-61
2023/09/26 05:49:02;;;;;;;;;;;19.70;99.90;;;;;;5014696;28;19965;-63
2023/09/26 05:51:27;;;;;;;;;;;20.00;99.90;;;;;;5011386;28;20001;-68
2023/09/26 05:53:53;;;;;;;;;;;20.20;99.90;;;;;;5017380;28;19913;-67
2023/09/26 05:56:19;;;;;;;;;;;20.30;99.90;;;;;;5017919;28;20388;-66
2023/09/26 05:58:47;;;;;;;;;;;20.40;99.90;;;;;;5014714;28;19959;-66
2023/09/26 06:01:12;;;;;;;;;;;20.60;99.90;;;;;;4994161;28;19913;-67
2023/09/26 06:03:38;;;;;;;;;;;21.00;99.90;;;;;;5016030;28;19913;-67
2023/09/26 06:06:04;;;;;;;;;;;21.30;99.90;;;;;;5012504;28;19909;-66
2023/09/26 06:08:29;;;;;;;;;;;21.60;99.90;;;;;;5017063;28;20246;-66
2023/09/26 06:10:55;;;;;;;;;;;22.00;99.90;;;;;;5014354;28;20287;-68
2023/09/26 06:13:21;;;;;;;;;;;22.20;99.90;;;;;;5012825;28;19909;-67
2023/09/26 06:15:46;;;;;;;;;;;22.00;99.90;;;;;;5016010;28;19909;-66
2023/09/26 06:18:12;;;;;;;;;;;22.00;99.90;;;;;;5015054;28;20330;-67
2023/09/26 06:20:38;;;;;;;;;;;22.70;99.90;;;;;;5010455;28;19937;-67
2023/09/26 06:23:04;;;;;;;;;;;23.30;99.90;;;;;;5014950;28;20414;-67
2023/09/26 06:25:29;;;;;;;;;;;23.10;99.90;;;;;;5013323;28;19913;-66
2023/09/26 06:27:55;;;;;;;;;;;23.00;99.90;;;;;;5000167;28;19909;-67
2023/09/26 06:30:20;;;;;;;;;;;23.00;99.90;;;;;;5019752;28;20326;-67
2023/09/26 06:32:46;;;;;;;;;;;23.10;99.90;;;;;;5014276;28;19914;-67
2023/09/26 06:35:12;;;;;;;;;;;23.30;99.90;;;;;;5012274;28;19917;-67
2023/09/26 06:37:37;;;;;;;;;;;23.70;99.90;;;;;;5015128;28;19979;-66
2023/09/26 06:40:06;;;;;;;;;;;23.70;99.90;;;;;;5013405;28;20348;-66
2023/09/26 06:42:32;;;;;;;;;;;23.60;99.90;;;;;;5010416;28;20643;-66
2023/09/26 06:44:58;;;;;;;;;;;23.60;99.90;;;;;;5015427;28;19913;-68
2023/09/26 06:47:25;;;;;;;;;;;24.10;99.90;;;;;;5016046;28;19928;-67
2023/09/26 06:49:52;;;;;;;;;;;24.90;99.90;;;;;;5012924;28;19917;-67
2023/09/26 06:52:17;;;;;;;;;;;25.60;99.90;;;;;;5014807;28;19917;-69
2023/09/26 06:54:43;;;;;;;;;;;26.50;99.90;;;;;;5016222;28;19917;-69
2023/09/26 06:57:09;;;;;;;;;;;26.20;99.90;;;;;;5016309;28;19917;-69
2023/09/26 06:59:36;;;;;;;;;;;27.10;99.90;;;;;;5004216;28;20051;-69
2023/09/26 07:02:01;;;;;;;;;;;27.30;99.20;;;;;;5005070;28;20456;-69
2023/09/26 07:04:27;;;;;;;;;;;27.60;98.70;;;;;;5014678;28;20013;-70
2023/09/26 07:06:52;;;;;;;;;;;27.50;98.70;;;;;;5016422;28;19944;-69
2023/09/26 07:09:20;;;;;;;;;;;26.90;98.20;;;;;;5012948;28;19958;-69
2023/09/26 07:11:49;;;;;;;;;;;25.80;99.60;;;;;;5013154;28;19913;-70
2023/09/26 07:14:15;;;;;;;;;;;26.00;99.90;;;;;;5008539;28;19909;-70
2023/09/26 07:16:41;;;;;;;;;;;26.30;99.70;;;;;;5015089;28;19913;-70
2023/09/26 07:19:06;;;;;;;;;;;27.20;99.10;;;;;;5010152;28;20335;-71
2023/09/26 07:21:32;;;;;;;;;;;28.50;97.40;;;;;;5014661;28;19920;-71
2023/09/26 07:23:59;;;;;;;;;;;29.80;95.80;;;;;;5008838;28;20298;-72
2023/09/26 07:26:25;;;;;;;;;;;30.30;94.90;;;;;;4996646;28;19919;-69
2023/09/26 07:28:51;;;;;;;;;;;31.30;93.20;;;;;;4995181;28;19921;-71
2023/09/26 07:31:18;;;;;;;;;;;30.00;93.60;;;;;;5011333;28;19917;-71
2023/09/26 07:33:44;;;;;;;;;;;30.20;93.20;;;;;;5014242;28;19967;-71
2023/09/26 07:36:09;;;;;;;;;;;30.10;92.60;;;;;;5014452;28;20327;-71
2023/09/26 07:38:35;;;;;;;;;;;30.70;92.90;;;;;;5014165;28;19948;-70
2023/09/26 07:41:01;;;;;;;;;;;30.10;91.80;;;;;;5012901;28;20445;-70
2023/09/26 07:43:32;;;;;;;;;;;28.50;93.80;;;;;;5012298;28;19964;-70
2023/09/26 07:46:08;;;;;;;;;;;28.80;94.70;;;;;;5012067;28;19913;-70
2023/09/26 07:48:34;;;;;;;;;;;29.20;93.60;;;;;;4996680;28;20463;-70
2023/09/26 07:51:00;;;;;;;;;;;28.70;94.20;;;;;;5014437;28;19920;-70
2023/09/26 07:53:26;;;;;;;;;;;28.60;94.50;;;;;;4999192;28;19909;-70
2023/09/26 07:55:53;;;;;;;;;;;28.40;95.30;;;;;;4996267;28;19940;-70
2023/09/26 07:58:19;;;;;;;;;;;28.80;95.10;;;;;;5015148;28;19909;-71
2023/09/26 08:00:44;;;;;;;;;;;29.60;94.10;;;;;;5013703;28;20024;-71
2023/09/26 08:03:10;;;;;;;;;;;29.60;94.00;;;;;;5007843;28;20379;-70
2023/09/26 08:05:36;;;;;;;;;;;30.20;93.50;;;;;;4996592;28;19971;-71
2023/09/26 08:08:04;;;;;;;;;;;31.60;91.80;;;;;;5013104;28;19921;-71
2023/09/26 08:10:30;;;;;;;;;;;31.00;91.30;;;;;;5013052;28;19913;-70
2023/09/26 08:12:56;;;;;;;;;;;30.20;92.50;;;;;;5001034;28;19909;-71
2023/09/26 08:15:21;;;;;;;;;;;30.00;92.50;;;;;;4996776;28;20275;-72
2023/09/26 08:17:47;;;;;;;;;;;30.60;92.00;;;;;;5009335;28;19909;-73
2023/09/26 08:20:13;;;;;;;;;;;32.20;90.60;;;;;;5008388;28;20236;-72
2023/09/26 08:22:39;;;;;;;;;;;32.80;88.60;;;;;;5014078;28;19909;-71
2023/09/26 08:25:05;;;;;;;;;;;31.40;88.80;;;;;;5009762;28;19920;-71
2023/09/26 08:27:31;;;;;;;;;;;30.10;90.60;;;;;;5005217;28;19964;-72
2023/09/26 08:29:59;;;;;;;;;;;29.60;91.50;;;;;;5012553;28;19913;-72
2023/09/26 08:32:25;;;;;;;;;;;29.70;91.50;;;;;;5017490;28;20006;-72
2023/09/26 08:34:50;;;;;;;;;;;31.10;90.70;;;;;;5014648;28;20006;-70
2023/09/26 08:37:16;;;;;;;;;;;30.60;90.60;;;;;;5018755;28;19920;-69
2023/09/26 08:39:43;;;;;;;;;;;31.00;89.50;;;;;;4998593;28;19927;-69
2023/09/26 08:42:14;;;;;;;;;;;30.30;90.60;;;;;;5011296;28;20390;-69
2023/09/26 08:44:39;;;;;;;;;;;30.90;89.70;;;;;;5016413;28;19924;-69
2023/09/26 08:47:05;;;;;;;;;;;29.60;90.90;;;;;;5016092;28;19917;-68
2023/09/26 08:49:32;;;;;;;;;;;30.30;91.30;;;;;;5014585;28;19913;-69
2023/09/26 08:51:58;;;;;;;;;;;31.00;90.10;;;;;;5016442;28;20407;-69
2023/09/26 08:54:23;;;;;;;;;;;31.40;89.80;;;;;;5017358;28;19913;-70
2023/09/26 08:56:49;;;;;;;;;;;30.50;90.00;;;;;;5020032;28;20012;-70
2023/09/26 08:59:17;;;;;;;;;;;30.60;90.30;;;;;;5016031;28;20554;-70
2023/09/26 09:01:42;;;;;;;;;;;30.00;91.10;;;;;;5012603;28;20412;-70
2023/09/26 09:04:09;;;;;;;;;;;30.60;90.90;;;;;;5017079;28;19913;-70
2023/09/26 09:06:35;;;;;;;;;;;31.40;90.50;;;;;;5018154;28;20519;-70
2023/09/26 09:09:08;;;;;;;;;;;31.70;90.10;;;;;;5010402;28;19928;-69
2023/09/26 09:11:33;;;;;;;;;;;33.20;88.10;;;;;;5015954;28;19913;-70
2023/09/26 09:13:59;;;;;;;;;;;33.50;87.10;;;;;;5017412;28;19951;-69
2023/09/26 09:16:24;;;;;;;;;;;32.60;86.20;;;;;;5008061;28;19952;-69
2023/09/26 09:18:51;;;;;;;;;;;32.20;87.70;;;;;;5015342;28;19916;-69
2023/09/26 09:21:29;;;;;;;;;;;32.80;88.10;;;;;;5002529;28;20000;-68
2023/09/26 09:23:56;;;;;;;;;;;34.60;85.50;;;;;;5000893;28;19913;-69
2023/09/26 09:26:22;;;;;;;;;;;36.50;81.90;;;;;;5013231;28;19909;-68
2023/09/26 09:28:49;;;;;;;;;;;36.70;79.00;;;;;;5014764;28;19924;-69
2023/09/26 09:31:18;;;;;;;;;;;36.40;78.10;;;;;;5015847;28;20468;-70
2023/09/26 09:33:48;;;;;;;;;;;36.00;79.60;;;;;;5014536;28;19917;-69
2023/09/26 09:36:13;;;;;;;;;;;35.30;78.70;;;;;;5016185;28;19919;-69
2023/09/26 09:38:39;;;;;;;;;;;35.40;79.70;;;;;;5011064;28;19912;-70
2023/09/26 09:41:06;;;;;;;;;;;36.20;78.80;;;;;;5000950;28;19971;-69
2023/09/26 09:43:31;;;;;;;;;;;35.90;78.30;;;;;;5011926;28;20527;-68
2023/09/26 09:46:01;;;;;;;;;;;36.70;76.80;;;;;;5015328;28;19967;-68
2023/09/26 09:48:29;;;;;;;;;;;37.50;76.00;;;;;;5014503;28;19909;-69
2023/09/26 09:50:56;;;;;;;;;;;38.40;73.70;;;;;;5012376;28;20043;-68
2023/09/26 09:53:24;;;;;;;;;;;38.70;73.10;;;;;;5013200;28;20019;-69
2023/09/26 09:55:52;;;;;;;;;;;38.30;72.90;;;;;;5010969;28;19913;-69
2023/09/26 09:58:22;;;;;;;;;;;37.10;73.80;;;;;;4998592;28;20260;-69
2023/09/26 10:00:48;;;;;;;;;;;37.90;73.10;;;;;;5013355;28;19963;-69
2023/09/26 10:03:15;;;;;;;;;;;37.70;73.00;;;;;;5016378;28;19991;-69
2023/09/26 10:05:42;;;;;;;;;;;38.10;72.90;;;;;;5007167;28;19917;-69
2023/09/26 10:08:09;;;;;;;;;;;37.30;72.80;;;;;;5016383;28;20526;-69
2023/09/26 10:10:35;;;;;;;;;;;35.70;73.90;;;;;;5010652;28;19917;-70
2023/09/26 10:13:01;;;;;;;;;;;35.50;75.70;;;;;;5012443;28;19920;-69
2023/09/26 10:15:30;;;;;;;;;;;35.90;75.30;;;;;;5013627;28;19909;-69
2023/09/26 10:17:55;;;;;;;;;;;35.80;75.40;;;;;;5013449;28;19917;-69
2023/09/26 10:20:26;;;;;;;;;;;33.90;77.60;;;;;;5015697;28;20309;-69
2023/09/26 10:23:08;;;;;;;;;;;34.30;77.90;;;;;;5013792;28;19913;-69
2023/09/26 10:25:35;;;;;;;;;;;35.20;77.20;;;;;;5015502;28;19962;-69
2023/09/26 10:28:03;;;;;;;;;;;35.30;76.40;;;;;;5013664;28;19917;-69
2023/09/26 10:30:40;;;;;;;;;;;34.80;76.80;;;;;;5016392;28;19917;-69
2023/09/26 10:33:06;;;;;;;;;;;34.60;76.90;;;;;;5015203;28;20155;-69
2023/09/26 10:35:32;;;;;;;;;;;34.70;77.20;;;;;;5015648;28;19916;-69
2023/09/26 10:38:05;;;;;;;;;;;35.20;77.60;;;;;;5014858;28;19909;-69
2023/09/26 10:40:31;;;;;;;;;;;35.10;76.60;;;;;;4993122;28;20356;-69
2023/09/26 10:42:58;;;;;;;;;;;36.30;76.00;;;;;;5016602;28;19913;-69
2023/09/26 10:45:24;;;;;;;;;;;37.90;73.70;;;;;;5009398;28;20427;-69
2023/09/26 10:47:50;;;;;;;;;;;38.10;73.30;;;;;;5016205;28;19912;-68
2023/09/26 10:50:15;;;;;;;;;;;37.50;72.10;;;;;;5009214;28;19919;-69
2023/09/26 10:52:46;;;;;;;;;;;35.80;73.70;;;;;;5012860;28;19913;-70
2023/09/26 10:55:14;;;;;;;;;;;32.70;77.80;;;;;;5012628;28;20163;-68
2023/09/26 10:57:39;;;;;;;;;;;30.70;82.50;;;;;;5010977;28;19916;-68
2023/09/26 11:00:12;;;;;;;;;;;29.90;84.60;;;;;;5012354;28;19913;-68
2023/09/26 11:02:38;;;;;;;;;;;29.60;86.10;;;;;;5010151;28;20450;-68
2023/09/26 11:05:08;;;;;;;;;;;29.30;87.90;;;;;;5014188;28;19913;-68
2023/09/26 11:07:34;;;;;;;;;;;28.70;89.20;;;;;;5000564;28;19913;-68
2023/09/26 11:09:59;;;;;;;;;;;28.50;90.50;;;;;;5012967;28;20403;-67
2023/09/26 11:12:27;;;;;;;;;;;28.40;91.10;;;;;;5013172;28;20217;-68
2023/09/26 11:14:55;;;;;;;;;;;28.00;91.40;;;;;;5004200;28;20384;-68
2023/09/26 11:17:23;;;;;;;;;;;27.60;92.20;;;;;;5008794;28;19967;-68
2023/09/26 11:19:50;;;;;;;;;;;27.40;93.00;;;;;;5012345;28;20356;-67
2023/09/26 11:22:16;;;;;;;;;;;27.50;93.30;;;;;;5008092;28;19933;-68
2023/09/26 11:24:41;;;;;;;;;;;27.40;93.80;;;;;;5014679;28;19995;-68
2023/09/26 11:27:08;;;;;;;;;;;27.70;93.80;;;;;;4999594;28;20322;-68
2023/09/26 11:29:35;;;;;;;;;;;28.00;93.10;;;;;;5012622;28;19920;-69
2023/09/26 11:32:02;;;;;;;;;;;28.20;93.00;;;;;;5010955;28;19909;-68
2023/09/26 11:34:28;;;;;;;;;;;28.50;92.50;;;;;;5013324;28;20320;-68
2023/09/26 11:36:54;;;;;;;;;;;28.50;92.30;;;;;;5014847;28;19909;-67
2023/09/26 11:39:20;;;;;;;;;;;28.30;92.90;;;;;;5003035;28;19968;-68
2023/09/26 11:41:47;;;;;;;;;;;28.00;93.30;;;;;;5011098;28;19996;-68
2023/09/26 11:44:13;;;;;;;;;;;27.40;94.00;;;;;;5012568;28;19925;-68
2023/09/26 11:46:41;;;;;;;;;;;27.00;94.80;;;;;;5004394;28;19913;-68
2023/09/26 11:49:07;;;;;;;;;;;27.00;95.50;;;;;;5013037;28;20283;-69
2023/09/26 11:51:33;;;;;;;;;;;27.10;94.80;;;;;;4996658;28;19925;-68
2023/09/26 11:53:58;;;;;;;;;;;27.00;95.10;;;;;;5014375;28;19944;-69
2023/09/26 11:56:27;;;;;;;;;;;26.90;95.40;;;;;;5014369;28;19909;-69
2023/09/26 11:58:53;;;;;;;;;;;26.90;95.70;;;;;;4990349;28;20494;-68
2023/09/26 12:01:20;;;;;;;;;;;27.00;95.10;;;;;;5013101;28;19909;-69
2023/09/26 12:03:45;;;;;;;;;;;27.00;95.40;;;;;;4998197;28;19917;-69
2023/09/26 12:06:11;;;;;;;;;;;27.00;95.40;;;;;;5018160;28;19913;-69
2023/09/26 12:08:37;;;;;;;;;;;27.50;95.40;;;;;;5015147;28;19956;-69
2023/09/26 12:11:03;;;;;;;;;;;27.80;94.90;;;;;;5007484;28;20011;-69
2023/09/26 12:13:28;;;;;;;;;;;27.80;94.50;;;;;;5017263;28;19948;-69
2023/09/26 12:15:54;;;;;;;;;;;27.70;94.70;;;;;;5016853;28;19909;-69
2023/09/26 12:18:19;;;;;;;;;;;27.70;94.30;;;;;;5015543;28;19914;-70
2023/09/26 12:20:45;;;;;;;;;;;27.90;94.30;;;;;;5017079;28;20229;-69
2023/09/26 12:23:12;;;;;;;;;;;27.70;94.10;;;;;;4996205;28;19910;-71
2023/09/26 12:25:38;;;;;;;;;;;27.40;93.90;;;;;;5017003;28;19909;-69
2023/09/26 12:28:04;;;;;;;;;;;26.90;94.50;;;;;;5013107;28;19916;-69
2023/09/26 12:30:29;;;;;;;;;;;26.60;95.00;;;;;;5015828;28;19921;-68
2023/09/26 12:32:56;;;;;;;;;;;26.40;95.30;;;;;;4999839;28;19913;-70
2023/09/26 12:35:21;;;;;;;;;;;26.30;95.40;;;;;;5011939;28;20770;-70
2023/09/26 12:37:47;;;;;;;;;;;26.60;95.40;;;;;;5015501;28;19923;-71
2023/09/26 12:40:13;;;;;;;;;;;26.80;95.10;;;;;;5015240;28;19959;-71
2023/09/26 12:42:40;;;;;;;;;;;26.80;94.50;;;;;;5015192;28;20445;-71
2023/09/26 12:45:06;;;;;;;;;;;26.70;94.70;;;;;;5011345;28;19928;-69
2023/09/26 12:47:33;;;;;;;;;;;26.50;94.70;;;;;;5007814;28;19995;-69
2023/09/26 12:50:04;;;;;;;;;;;26.50;94.80;;;;;;5013493;28;19917;-69
2023/09/26 12:52:31;;;;;;;;;;;26.50;95.10;;;;;;5016020;28;20405;-71
2023/09/26 12:54:57;;;;;;;;;;;26.60;95.40;;;;;;5016122;28;19913;-70
2023/09/26 12:57:23;;;;;;;;;;;26.60;95.00;;;;;;5018760;28;20430;-70
2023/09/26 12:59:49;;;;;;;;;;;26.40;95.10;;;;;;5012134;28;20037;-70
2023/09/26 13:02:15;;;;;;;;;;;26.60;94.30;;;;;;5015864;28;19917;-67
2023/09/26 13:04:41;;;;;;;;;;;26.70;93.60;;;;;;4999874;28;19936;-69
2023/09/26 13:07:06;;;;;;;;;;;26.50;93.20;;;;;;5019806;28;19924;-70
2023/09/26 13:09:32;;;;;;;;;;;26.50;94.00;;;;;;5015704;28;20419;-69
2023/09/26 13:11:57;;;;;;;;;;;26.50;94.20;;;;;;5015356;28;20414;-69
2023/09/26 13:14:23;;;;;;;;;;;26.60;94.00;;;;;;5013982;28;20370;-70
2023/09/26 13:16:49;;;;;;;;;;;26.80;93.90;;;;;;5011788;28;20004;-63
2023/09/26 13:19:14;;;;;;;;;;;26.60;93.00;;;;;;5015583;28;19957;-65
2023/09/26 13:21:40;;;;;;;;;;;26.60;92.90;;;;;;5015786;28;19979;-64
2023/09/26 13:24:05;;;;;;;;;;;26.60;92.00;;;;;;5011756;28;20000;-64
2023/09/26 13:26:31;;;;;;;;;;;26.70;92.40;;;;;;5017043;28;19913;-64
2023/09/26 13:28:57;;;;;;;;;;;26.70;91.80;;;;;;5014195;28;20273;-64
2023/09/26 13:31:22;;;;;;;;;;;26.70;91.70;;;;;;5003621;28;20341;-64
2023/09/26 13:33:48;;;;;;;;;;;26.80;91.30;;;;;;4997899;28;19917;-64
2023/09/26 13:36:13;;;;;;;;;;;26.70;90.90;;;;;;5017729;28;19995;-64
2023/09/26 13:38:39;;;;;;;;;;;26.70;91.00;;;;;;5016401;28;19920;-64
2023/09/26 13:41:05;;;;;;;;;;;26.60;91.10;;;;;;5015308;28;20411;-64
2023/09/26 13:43:31;;;;;;;;;;;26.60;90.90;;;;;;5014730;28;19917;-64
2023/09/26 13:45:57;;;;;;;;;;;26.60;91.70;;;;;;5012315;28;19912;-63
2023/09/26 13:48:23;;;;;;;;;;;26.60;91.60;;;;;;5011065;28;19914;-64
2023/09/26 13:50:48;;;;;;;;;;;26.60;91.90;;;;;;5016429;28;19917;-64
2023/09/26 13:53:14;;;;;;;;;;;26.60;91.60;;;;;;5016444;28;20133;-64
2023/09/26 13:55:39;;;;;;;;;;;26.60;91.00;;;;;;5016043;28;19967;-64
2023/09/26 13:58:05;;;;;;;;;;;26.60;91.30;;;;;;5015176;28;20521;-64
2023/09/26 14:00:32;;;;;;;;;;;26.60;91.60;;;;;;5015405;28;19928;-63
2023/09/26 14:02:58;;;;;;;;;;;26.60;91.60;;;;;;5002345;28;19910;-64
2023/09/26 14:05:24;;;;;;;;;;;26.60;91.30;;;;;;5006421;28;20320;-64
2023/09/26 14:07:49;;;;;;;;;;;26.50;90.70;;;;;;4995455;28;20368;-64
2023/09/26 14:10:15;;;;;;;;;;;26.30;91.30;;;;;;5002084;28;19924;-62
2023/09/26 14:12:41;;;;;;;;;;;26.20;91.50;;;;;;5010371;28;20014;-64